Time;durP1;ratioP1;P1;durP2;ratioP2;P2;SDS_P1;SDS_P2;PMS_P1;PMS_P2;Temp;Humidity;BMP_temperature;BMP_pressure;BME280_temperature;BME280_humidity;BME280_pressure;Samples;Min_cycle;Max_cycle;Signal;HPM_P1;HPM_P2
2022/07/04 00:01:46;;;;;;;;;;;;;;;;;;4869631;29;20387;-86
2022/07/04 00:04:19;;;;;;;;;;;;;;;;;;4856727;29;20755;-86
2022/07/04 00:06:47;;;;;;;;;;;;;;;;;;4850473;29;19932;-85
2022/07/04 00:09:14;;;;;;;;;;;;;;;;;;4857231;29;19935;-86
2022/07/04 00:11:41;;;;;;;;;;;;;;;;;;4855033;29;19927;-86
2022/07/04 00:14:07;;;;;;;;;;;;;;;;;;4867213;29;19931;-86
2022/07/04 00:16:34;;;;;;;;;;;;;;;;;;4849477;29;20383;-86
2022/07/04 00:19:00;;;;;;;;;;;;;;;;;;4844182;29;20470;-86
2022/07/04 00:21:26;;;;;;;;;;;;;;;;;;4849507;29;19986;-86
2022/07/04 00:23:53;;;;;;;;;;;;;;;;;;4844660;29;19927;-86
2022/07/04 00:26:19;;;;;;;;;;;;;;;;;;4844906;29;19935;-86
2022/07/04 00:28:45;;;;;;;;;;;;;;;;;;4844782;29;19931;-86
2022/07/04 00:31:15;;;;;;;;;;;;;;;;;;4845745;29;19927;-86
2022/07/04 00:33:41;;;;;;;;;;;;;;;;;;4846094;29;19936;-85
2022/07/04 00:36:08;;;;;;;;;;;;;;;;;;4831913;29;19939;-86
2022/07/04 00:38:34;;;;;;;;;;;;;;;;;;4848308;29;19935;-86
2022/07/04 00:41:00;;;;;;;;;;;;;;;;;;4830529;29;19932;-86
2022/07/04 00:43:26;;;;;;;;;;;;;;;;;;4832351;29;19971;-87
2022/07/04 00:45:52;;;;;;;;;;;;;;;;;;4838533;29;20564;-86
2022/07/04 00:48:20;;;;;;;;;;;;;;;;;;4834715;29;19935;-86
2022/07/04 00:50:47;;;;;;;;;;;;;;;;;;4809980;29;19932;-86
2022/07/04 00:53:15;;;;;;;;;;;;;;;;;;4827249;29;20284;-86
2022/07/04 00:55:43;;;;;;;;;;;;;;;;;;4841767;29;21118;-86
2022/07/04 00:58:10;;;;;;;;;;;;;;;;;;4828841;29;19974;-86
2022/07/04 01:00:37;;;;;;;;;;;;;;;;;;4812453;29;19932;-86
2022/07/04 01:03:03;;;;;;;;;;;;;;;;;;4829415;29;19971;-86
2022/07/04 01:05:29;;;;;;;;;;;;;;;;;;4811784;29;21051;-86
2022/07/04 01:07:55;;;;;;;;;;;;;;;;;;4841955;29;19932;-86
2022/07/04 01:10:21;;;;;;;;;;;;;;;;;;4827134;29;19927;-86
2022/07/04 01:12:48;;;;;;;;;;;;;;;;;;4809055;29;19986;-86
2022/07/04 01:15:15;;;;;;;;;;;;;;;;;;4843614;29;20307;-86
2022/07/04 01:17:41;;;;;;;;;;;;;;;;;;4843530;29;19938;-86
2022/07/04 01:20:08;;;;;;;;;;;;;;;;;;4812003;29;19959;-86
2022/07/04 01:22:35;;;;;;;;;;;;;;;;;;4812808;29;19927;-87
2022/07/04 01:25:03;;;;;;;;;;;;;;;;;;4808567;29;19989;-87
2022/07/04 01:27:45;;;;;;;;;;;;;;;;;;4840760;29;19988;-87
2022/07/04 01:30:11;;;;;;;;;;;;;;;;;;4843272;29;19931;-86
2022/07/04 01:32:39;;;;;;;;;;;;;;;;;;4829457;29;19931;-86
2022/07/04 01:35:06;;;;;;;;;;;;;;;;;;4810019;29;19988;-86
2022/07/04 01:37:34;;;;;;;;;;;;;;;;;;4813815;29;20113;-86
2022/07/04 01:40:01;;;;;;;;;;;;;;;;;;4829368;29;19939;-86
2022/07/04 01:42:28;;;;;;;;;;;;;;;;;;4830435;29;20039;-86
2022/07/04 01:44:55;;;;;;;;;;;;;;;;;;4831021;29;20962;-86
2022/07/04 01:47:36;;;;;;;;;;;;;;;;;;4828112;29;20636;-86
2022/07/04 01:50:02;;;;;;;;;;;;;;;;;;4807446;29;19932;-86
2022/07/04 01:52:29;;;;;;;;;;;;;;;;;;4828499;29;19928;-87
2022/07/04 01:54:59;;;;;;;;;;;;;;;;;;4828989;29;24015;-86
2022/07/04 01:57:28;;;;;;;;;;;;;;;;;;4827320;29;20088;-86
2022/07/04 02:02:48;;;;;;;;;;;;;;;;;;4831956;29;19973;-86
2022/07/04 02:05:16;;;;;;;;;;;;;;;;;;4822939;29;19932;-86
2022/07/04 02:07:43;;;;;;;;;;;;;;;;;;4815433;29;19924;-86
2022/07/04 02:10:11;;;;;;;;;;;;;;;;;;4816936;29;19939;-86
2022/07/04 02:15:26;;;;;;;;;;;;;;;;;;4806851;29;19939;-86
2022/07/04 02:17:52;;;;;;;;;;;;;;;;;;4789929;29;19932;-86
2022/07/04 02:20:18;;;;;;;;;;;;;;;;;;4810641;29;20695;-86
2022/07/04 02:22:44;;;;;;;;;;;;;;;;;;4809053;29;19928;-86
2022/07/04 02:25:11;;;;;;;;;;;;;;;;;;4830731;29;20275;-87
2022/07/04 02:27:38;;;;;;;;;;;;;;;;;;4836975;29;19932;-86
2022/07/04 02:30:04;;;;;;;;;;;;;;;;;;4835104;29;20014;-86
2022/07/04 02:32:31;;;;;;;;;;;;;;;;;;4851317;29;19986;-86
2022/07/04 02:35:16;;;;;;;;;;;;;;;;;;4852043;29;19939;-86
2022/07/04 02:37:43;;;;;;;;;;;;;;;;;;4834119;29;19931;-87
2022/07/04 02:40:09;;;;;;;;;;;;;;;;;;4851217;29;19952;-87
2022/07/04 02:42:35;;;;;;;;;;;;;;;;;;4848056;29;19932;-87
2022/07/04 02:45:02;;;;;;;;;;;;;;;;;;4842611;29;21068;-87
2022/07/04 02:47:29;;;;;;;;;;;;;;;;;;4829427;29;19935;-86
2022/07/04 02:49:56;;;;;;;;;;;;;;;;;;4811842;29;19938;-87
2022/07/04 02:52:22;;;;;;;;;;;;;;;;;;4829635;29;19932;-86
2022/07/04 02:54:49;;;;;;;;;;;;;;;;;;4810475;29;19935;-87
2022/07/04 02:57:17;;;;;;;;;;;;;;;;;;4832652;29;19928;-86
2022/07/04 02:59:43;;;;;;;;;;;;;;;;;;4809937;29;20057;-86
2022/07/04 03:02:09;;;;;;;;;;;;;;;;;;4830560;29;19938;-86
2022/07/04 03:04:39;;;;;;;;;;;;;;;;;;4833616;29;20018;-86
2022/07/04 03:07:07;;;;;;;;;;;;;;;;;;4833407;29;19975;-86
2022/07/04 03:09:33;;;;;;;;;;;;;;;;;;4831585;29;19959;-86
2022/07/04 03:12:01;;;;;;;;;;;;;;;;;;4828430;29;19936;-86
2022/07/04 03:14:28;;;;;;;;;;;;;;;;;;4833072;29;20092;-86
2022/07/04 03:16:55;;;;;;;;;;;;;;;;;;4828111;29;19932;-86
2022/07/04 03:19:21;;;;;;;;;;;;;;;;;;4826841;29;20018;-86
2022/07/04 03:21:55;;;;;;;;;;;;;;;;;;4847198;29;19974;-86
2022/07/04 03:24:20;;;;;;;;;;;;;;;;;;4819467;29;19927;-86
2022/07/04 03:26:47;;;;;;;;;;;;;;;;;;4823197;29;19979;-86
2022/07/04 03:29:13;;;;;;;;;;;;;;;;;;4832008;29;19928;-86
2022/07/04 03:31:39;;;;;;;;;;;;;;;;;;4829954;29;19931;-87
2022/07/04 03:34:05;;;;;;;;;;;;;;;;;;4811175;29;19932;-86
2022/07/04 03:36:31;;;;;;;;;;;;;;;;;;4832884;29;19932;-87
2022/07/04 03:38:59;;;;;;;;;;;;;;;;;;4813569;29;19935;-87
2022/07/04 03:41:25;;;;;;;;;;;;;;;;;;4832165;29;19935;-87
2022/07/04 03:43:52;;;;;;;;;;;;;;;;;;4845953;29;19930;-87
2022/07/04 03:46:18;;;;;;;;;;;;;;;;;;4871682;29;20022;-87
2022/07/04 03:48:45;;;;;;;;;;;;;;;;;;4831446;29;20321;-86
2022/07/04 03:51:13;;;;;;;;;;;;;;;;;;4862397;29;20030;-86
2022/07/04 03:53:41;;;;;;;;;;;;;;;;;;4854646;29;20379;-86
2022/07/04 03:56:08;;;;;;;;;;;;;;;;;;4856004;29;19928;-86
2022/07/04 03:58:35;;;;;;;;;;;;;;;;;;4856244;29;20015;-87
2022/07/04 04:01:01;;;;;;;;;;;;;;;;;;4836605;29;19932;-87
2022/07/04 04:06:15;;;;;;;;;;;;;;;;;;4851809;29;19927;-87
2022/07/04 04:08:41;;;;;;;;;;;;;;;;;;4847303;29;19923;-87
2022/07/04 04:11:07;;;;;;;;;;;;;;;;;;4855455;29;19939;-87
2022/07/04 04:13:33;;;;;;;;;;;;;;;;;;4834234;29;19931;-87
2022/07/04 04:15:59;;;;;;;;;;;;;;;;;;4839987;29;19938;-87
2022/07/04 04:18:24;;;;;;;;;;;;;;;;;;4847546;29;19987;-87
2022/07/04 04:20:50;;;;;;;;;;;;;;;;;;4828572;29;20295;-87
2022/07/04 04:23:16;;;;;;;;;;;;;;;;;;4845195;29;19992;-87
2022/07/04 04:25:42;;;;;;;;;;;;;;;;;;4827650;29;20022;-87
2022/07/04 04:28:08;;;;;;;;;;;;;;;;;;4861956;29;19938;-87
2022/07/04 04:30:36;;;;;;;;;;;;;;;;;;4833425;29;19924;-86
2022/07/04 04:33:03;;;;;;;;;;;;;;;;;;4843062;29;19942;-87
2022/07/04 04:35:29;;;;;;;;;;;;;;;;;;4856876;29;20145;-87
2022/07/04 04:37:55;;;;;;;;;;;;;;;;;;4847224;29;21548;-86
2022/07/04 04:40:21;;;;;;;;;;;;;;;;;;4853018;29;19989;-87
2022/07/04 04:42:56;;;;;;;;;;;;;;;;;;4866919;29;20345;-87
2022/07/04 04:45:22;;;;;;;;;;;;;;;;;;4854401;29;20374;-86
2022/07/04 04:47:48;;;;;;;;;;;;;;;;;;4851049;29;20454;-87
2022/07/04 04:50:15;;;;;;;;;;;;;;;;;;4849236;29;20652;-86
2022/07/04 04:52:41;;;;;;;;;;;;;;;;;;4848895;29;19978;-87
2022/07/04 04:55:08;;;;;;;;;;;;;;;;;;4854710;29;20400;-86
2022/07/04 04:57:34;;;;;;;;;;;;;;;;;;4867468;29;20410;-86
2022/07/04 05:00:02;;;;;;;;;;;;;;;;;;4850970;29;19931;-87
2022/07/04 05:02:28;;;;;;;;;;;;;;;;;;4839621;29;19923;-86
2022/07/04 05:04:55;;;;;;;;;;;;;;;;;;4850062;29;20301;-86
2022/07/04 05:07:22;;;;;;;;;;;;;;;;;;4840379;29;20417;-86
2022/07/04 05:09:48;;;;;;;;;;;;;;;;;;4850887;29;19930;-86
2022/07/04 05:12:16;;;;;;;;;;;;;;;;;;4853847;29;19927;-87
2022/07/04 05:14:42;;;;;;;;;;;;;;;;;;4848389;29;20006;-87
2022/07/04 05:17:09;;;;;;;;;;;;;;;;;;4854186;29;20422;-87
2022/07/04 05:19:37;;;;;;;;;;;;;;;;;;4857358;29;19974;-87
2022/07/04 05:22:03;;;;;;;;;;;;;;;;;;4838569;29;19935;-86
2022/07/04 05:24:30;;;;;;;;;;;;;;;;;;4855271;29;20001;-86
2022/07/04 05:26:56;;;;;;;;;;;;;;;;;;4855394;29;20011;-86
2022/07/04 05:29:22;;;;;;;;;;;;;;;;;;4855683;29;19931;-87
2022/07/04 05:31:49;;;;;;;;;;;;;;;;;;4850540;29;19986;-86
2022/07/04 05:34:18;;;;;;;;;;;;;;;;;;4853078;29;19931;-87
2022/07/04 05:36:44;;;;;;;;;;;;;;;;;;4846569;29;19939;-87
2022/07/04 05:39:11;;;;;;;;;;;;;;;;;;4838152;29;19931;-86
2022/07/04 05:41:37;;;;;;;;;;;;;;;;;;4853687;29;19935;-86
2022/07/04 05:44:04;;;;;;;;;;;;;;;;;;4837735;29;19959;-87
2022/07/04 05:46:30;;;;;;;;;;;;;;;;;;4859662;29;19928;-86
2022/07/04 05:48:56;;;;;;;;;;;;;;;;;;4836252;29;19987;-86
2022/07/04 05:51:22;;;;;;;;;;;;;;;;;;4847917;29;22391;-86
2022/07/04 05:53:48;;;;;;;;;;;;;;;;;;4856850;29;20215;-87
2022/07/04 05:56:14;;;;;;;;;;;;;;;;;;4858977;29;19931;-87
2022/07/04 05:58:40;;;;;;;;;;;;;;;;;;4855307;29;19932;-87
2022/07/04 06:01:06;;;;;;;;;;;;;;;;;;4841812;29;19927;-86
2022/07/04 06:03:32;;;;;;;;;;;;;;;;;;4842807;29;19934;-87
2022/07/04 06:05:58;;;;;;;;;;;;;;;;;;4854521;29;19923;-86
2022/07/04 06:08:25;;;;;;;;;;;;;;;;;;4858803;29;20294;-86
2022/07/04 06:10:51;;;;;;;;;;;;;;;;;;4856674;29;19938;-87
2022/07/04 06:13:17;;;;;;;;;;;;;;;;;;4858392;29;20484;-86
2022/07/04 06:15:43;;;;;;;;;;;;;;;;;;4855616;29;19945;-86
2022/07/04 06:18:09;;;;;;;;;;;;;;;;;;4859448;29;19931;-86
2022/07/04 06:20:35;;;;;;;;;;;;;;;;;;4858884;29;19927;-86
2022/07/04 06:23:01;;;;;;;;;;;;;;;;;;4845730;29;19928;-87
2022/07/04 06:25:27;;;;;;;;;;;;;;;;;;4842153;29;20840;-87
2022/07/04 06:27:53;;;;;;;;;;;;;;;;;;4842880;29;19964;-86
2022/07/04 06:30:19;;;;;;;;;;;;;;;;;;4867321;29;19927;-86
2022/07/04 06:32:45;;;;;;;;;;;;;;;;;;4839476;29;19983;-86
2022/07/04 06:37:56;;;;;;;;;;;;;;;;;;4852862;29;19950;-86
2022/07/04 06:40:22;;;;;;;;;;;;;;;;;;4853355;29;20391;-86
2022/07/04 06:42:48;;;;;;;;;;;;;;;;;;4848938;29;19931;-87
2022/07/04 06:45:14;;;;;;;;;;;;;;;;;;4850965;29;20344;-87
2022/07/04 06:47:41;;;;;;;;;;;;;;;;;;4845211;29;19931;-87
2022/07/04 06:50:06;;;;;;;;;;;;;;;;;;4860299;29;19966;-86
2022/07/04 06:52:32;;;;;;;;;;;;;;;;;;4878915;29;20286;-86
2022/07/04 06:54:59;;;;;;;;;;;;;;;;;;4861150;29;20359;-86
2022/07/04 06:57:25;;;;;;;;;;;;;;;;;;4850292;29;20054;-86
2022/07/04 06:59:51;;;;;;;;;;;;;;;;;;4859376;29;20353;-87
2022/07/04 07:02:17;;;;;;;;;;;;;;;;;;4861462;29;20279;-87
2022/07/04 07:04:43;;;;;;;;;;;;;;;;;;4857927;29;20294;-86
2022/07/04 07:07:09;;;;;;;;;;;;;;;;;;4844281;29;20689;-86
2022/07/04 07:09:35;;;;;;;;;;;;;;;;;;4844639;29;19946;-87
2022/07/04 07:12:01;;;;;;;;;;;;;;;;;;4856072;29;19931;-86
2022/07/04 07:14:27;;;;;;;;;;;;;;;;;;4859457;29;19939;-86
2022/07/04 07:16:53;;;;;;;;;;;;;;;;;;4858749;29;19927;-86
2022/07/04 07:19:19;;;;;;;;;;;;;;;;;;4857429;29;20275;-86
2022/07/04 07:21:45;;;;;;;;;;;;;;;;;;4841736;29;19923;-87
2022/07/04 07:24:11;;;;;;;;;;;;;;;;;;4849818;29;19974;-87
2022/07/04 07:26:37;;;;;;;;;;;;;;;;;;4865116;29;19931;-86
2022/07/04 07:29:02;;;;;;;;;;;;;;;;;;4860895;29;19932;-87
2022/07/04 07:31:29;;;;;;;;;;;;;;;;;;4864118;29;19939;-86
2022/07/04 07:33:54;;;;;;;;;;;;;;;;;;4847388;29;19932;-86
2022/07/04 07:36:20;;;;;;;;;;;;;;;;;;4847432;29;19975;-87
2022/07/04 07:38:46;;;;;;;;;;;;;;;;;;4840182;29;19987;-85
2022/07/04 07:41:12;;;;;;;;;;;;;;;;;;4861098;29;19931;-86
2022/07/04 07:43:39;;;;;;;;;;;;;;;;;;4846788;29;19931;-87
2022/07/04 07:46:05;;;;;;;;;;;;;;;;;;4846524;29;19927;-87
2022/07/04 07:48:31;;;;;;;;;;;;;;;;;;4863092;29;20276;-87
2022/07/04 07:50:57;;;;;;;;;;;;;;;;;;4862278;29;19995;-87
2022/07/04 07:53:23;;;;;;;;;;;;;;;;;;4867074;29;19943;-88
2022/07/04 07:55:49;;;;;;;;;;;;;;;;;;4850101;29;19979;-88
2022/07/04 07:58:15;;;;;;;;;;;;;;;;;;4864368;29;20363;-87
2022/07/04 08:00:44;;;;;;;;;;;;;;;;;;4843308;29;20009;-86
2022/07/04 08:05:55;;;;;;;;;;;;;;;;;;4859773;29;19927;-86
2022/07/04 08:08:23;;;;;;;;;;;;;;;;;;4859112;29;19927;-86
2022/07/04 08:10:49;;;;;;;;;;;;;;;;;;4857901;29;19931;-87
2022/07/04 08:13:15;;;;;;;;;;;;;;;;;;4847180;29;19932;-87
2022/07/04 08:15:41;;;;;;;;;;;;;;;;;;4855374;29;20470;-86
2022/07/04 08:18:06;;;;;;;;;;;;;;;;;;4861311;29;20358;-86
2022/07/04 08:20:32;;;;;;;;;;;;;;;;;;4863437;29;21215;-87
2022/07/04 08:22:58;;;;;;;;;;;;;;;;;;4857703;29;20055;-86
2022/07/04 08:25:24;;;;;;;;;;;;;;;;;;4850046;29;20022;-86
2022/07/04 08:27:51;;;;;;;;;;;;;;;;;;4840579;29;19931;-87
2022/07/04 08:30:17;;;;;;;;;;;;;;;;;;4863279;29;21697;-86
2022/07/04 08:32:43;;;;;;;;;;;;;;;;;;4861418;29;19942;-87
2022/07/04 08:35:09;;;;;;;;;;;;;;;;;;4852412;29;19932;-87
2022/07/04 08:37:35;;;;;;;;;;;;;;;;;;4846968;29;20531;-87
2022/07/04 08:40:06;;;;;;;;;;;;;;;;;;4844041;29;19974;-87
2022/07/04 08:42:32;;;;;;;;;;;;;;;;;;4860441;29;20015;-87
2022/07/04 08:44:58;;;;;;;;;;;;;;;;;;4859803;29;20347;-87
2022/07/04 08:47:24;;;;;;;;;;;;;;;;;;4848882;29;20228;-87
2022/07/04 08:49:50;;;;;;;;;;;;;;;;;;4862743;29;20365;-87
2022/07/04 08:52:16;;;;;;;;;;;;;;;;;;4867110;29;19927;-87
2022/07/04 09:00:12;;;;;;;;;;;;;;;;;;4864881;29;19938;-88
2022/07/04 09:02:38;;;;;;;;;;;;;;;;;;4862854;29;19932;-87
2022/07/04 09:05:05;;;;;;;;;;;;;;;;;;4841503;29;20002;-87
2022/07/04 09:07:31;;;;;;;;;;;;;;;;;;4864120;29;19937;-86
2022/07/04 09:09:57;;;;;;;;;;;;;;;;;;4859868;29;19931;-87
2022/07/04 09:12:23;;;;;;;;;;;;;;;;;;4852843;29;19938;-86
2022/07/04 09:14:49;;;;;;;;;;;;;;;;;;4850384;29;19936;-87
2022/07/04 09:17:15;;;;;;;;;;;;;;;;;;4863219;29;19983;-87
2022/07/04 09:19:40;;;;;;;;;;;;;;;;;;4852441;29;19923;-87
2022/07/04 09:22:06;;;;;;;;;;;;;;;;;;4849702;29;19971;-85
2022/07/04 09:24:32;;;;;;;;;;;;;;;;;;4863670;29;20331;-85
2022/07/04 09:26:58;;;;;;;;;;;;;;;;;;4862722;29;20302;-85
2022/07/04 09:29:24;;;;;;;;;;;;;;;;;;4848127;29;19931;-85
2022/07/04 09:31:50;;;;;;;;;;;;;;;;;;4838327;29;19983;-85
2022/07/04 09:34:16;;;;;;;;;;;;;;;;;;4865900;29;19931;-85
2022/07/04 09:36:42;;;;;;;;;;;;;;;;;;4863688;29;19931;-86
2022/07/04 09:39:15;;;;;;;;;;;;;;;;;;4844298;29;20014;-85
2022/07/04 09:41:41;;;;;;;;;;;;;;;;;;4859176;29;19931;-86
2022/07/04 09:44:07;;;;;;;;;;;;;;;;;;4851166;29;20018;-85
2022/07/04 09:46:33;;;;;;;;;;;;;;;;;;4865999;29;19931;-85
2022/07/04 09:48:59;;;;;;;;;;;;;;;;;;4860331;29;21152;-85
2022/07/04 09:51:25;;;;;;;;;;;;;;;;;;4866857;29;20668;-85
2022/07/04 09:53:51;;;;;;;;;;;;;;;;;;4860951;29;19927;-86
2022/07/04 09:56:16;;;;;;;;;;;;;;;;;;4849727;29;19967;-85
2022/07/04 09:58:44;;;;;;;;;;;;;;;;;;4860904;29;19927;-84
2022/07/04 10:01:10;;;;;;;;;;;;;;;;;;4863193;29;19959;-85
2022/07/04 10:03:37;;;;;;;;;;;;;;;;;;4864210;29;19924;-85
2022/07/04 10:06:03;;;;;;;;;;;;;;;;;;4861474;29;19931;-85
2022/07/04 10:08:29;;;;;;;;;;;;;;;;;;4849084;29;19994;-84
2022/07/04 10:10:55;;;;;;;;;;;;;;;;;;4840413;29;20039;-85
2022/07/04 10:13:21;;;;;;;;;;;;;;;;;;4861613;29;19971;-85
2022/07/04 10:15:47;;;;;;;;;;;;;;;;;;4860427;29;19924;-85
2022/07/04 10:18:13;;;;;;;;;;;;;;;;;;4845486;29;19959;-85
2022/07/04 10:20:45;;;;;;;;;;;;;;;;;;4865575;29;20377;-85
2022/07/04 10:23:11;;;;;;;;;;;;;;;;;;4861303;29;19972;-84
2022/07/04 10:25:37;;;;;;;;;;;;;;;;;;4863855;29;19927;-84
2022/07/04 10:28:03;;;;;;;;;;;;;;;;;;4861041;29;19927;-84
2022/07/04 10:30:29;;;;;;;;;;;;;;;;;;4870304;29;19935;-84
2022/07/04 10:32:58;;;;;;;;;;;;;;;;;;4875254;29;19924;-84
2022/07/04 10:35:24;;;;;;;;;;;;;;;;;;4855548;29;19931;-85
2022/07/04 10:37:50;;;;;;;;;;;;;;;;;;4858681;29;19928;-84
2022/07/04 10:40:16;;;;;;;;;;;;;;;;;;4872462;29;19934;-84
2022/07/04 10:42:42;;;;;;;;;;;;;;;;;;4864879;29;19927;-85
2022/07/04 10:45:08;;;;;;;;;;;;;;;;;;4864672;29;19927;-85
2022/07/04 10:47:34;;;;;;;;;;;;;;;;;;4863179;29;19935;-84
2022/07/04 10:50:00;;;;;;;;;;;;;;;;;;4856899;29;20296;-84
2022/07/04 10:52:26;;;;;;;;;;;;;;;;;;4864585;29;20600;-85
2022/07/04 10:54:52;;;;;;;;;;;;;;;;;;4843713;29;20063;-84
2022/07/04 10:57:19;;;;;;;;;;;;;;;;;;4862135;29;20118;-84
2022/07/04 10:59:45;;;;;;;;;;;;;;;;;;4861283;29;20022;-84
2022/07/04 11:02:11;;;;;;;;;;;;;;;;;;4866087;29;19931;-85
2022/07/04 11:04:37;;;;;;;;;;;;;;;;;;4850786;29;19950;-85
2022/07/04 11:07:03;;;;;;;;;;;;;;;;;;4866028;29;20371;-83
2022/07/04 11:09:29;;;;;;;;;;;;;;;;;;4860230;29;19978;-83
2022/07/04 11:11:55;;;;;;;;;;;;;;;;;;4882946;29;19931;-83
2022/07/04 11:14:21;;;;;;;;;;;;;;;;;;4881052;29;20287;-84
2022/07/04 11:16:47;;;;;;;;;;;;;;;;;;4846713;29;19924;-84
2022/07/04 11:19:17;;;;;;;;;;;;;;;;;;4859048;29;19981;-83
2022/07/04 11:21:44;;;;;;;;;;;;;;;;;;4848763;29;19963;-84
2022/07/04 11:24:10;;;;;;;;;;;;;;;;;;4851102;29;19931;-84
2022/07/04 11:26:39;;;;;;;;;;;;;;;;;;4847210;29;19928;-83
2022/07/04 11:29:05;;;;;;;;;;;;;;;;;;4853179;29;20429;-84
2022/07/04 11:31:31;;;;;;;;;;;;;;;;;;4854355;29;19927;-84
2022/07/04 11:33:57;;;;;;;;;;;;;;;;;;4836167;29;19938;-83
2022/07/04 11:36:23;;;;;;;;;;;;;;;;;;4858245;29;20356;-85
2022/07/04 11:38:49;;;;;;;;;;;;;;;;;;4853361;29;20355;-85
2022/07/04 11:47:06;;;;;;;;;;;;;;;;;;4862251;29;19938;-84
2022/07/04 11:49:32;;;;;;;;;;;;;;;;;;4840764;29;19936;-84
2022/07/04 11:51:58;;;;;;;;;;;;;;;;;;4846268;29;19932;-84
2022/07/04 11:54:24;;;;;;;;;;;;;;;;;;4861056;29;19935;-84
2022/07/04 11:56:51;;;;;;;;;;;;;;;;;;4859615;29;20310;-85
2022/07/04 11:59:17;;;;;;;;;;;;;;;;;;4862497;29;19975;-85
2022/07/04 12:01:43;;;;;;;;;;;;;;;;;;4854462;29;19927;-84
2022/07/04 12:04:09;;;;;;;;;;;;;;;;;;4863052;29;19930;-85
2022/07/04 12:06:35;;;;;;;;;;;;;;;;;;4860399;29;19927;-85
2022/07/04 12:09:01;;;;;;;;;;;;;;;;;;4842678;29;21595;-84
2022/07/04 12:11:27;;;;;;;;;;;;;;;;;;4857669;29;19962;-84
2022/07/04 12:13:54;;;;;;;;;;;;;;;;;;4854411;29;20034;-84
2022/07/04 12:16:20;;;;;;;;;;;;;;;;;;4860929;29;19934;-84
2022/07/04 12:18:46;;;;;;;;;;;;;;;;;;4842737;29;20014;-84
2022/07/04 12:21:12;;;;;;;;;;;;;;;;;;4862319;29;19932;-84
2022/07/04 12:23:41;;;;;;;;;;;;;;;;;;4854487;29;20500;-85
2022/07/04 12:26:09;;;;;;;;;;;;;;;;;;4861632;29;20662;-84
2022/07/04 12:28:35;;;;;;;;;;;;;;;;;;4846536;29;19931;-84
2022/07/04 12:31:01;;;;;;;;;;;;;;;;;;4861642;29;20397;-84
2022/07/04 12:33:27;;;;;;;;;;;;;;;;;;4865143;29;20017;-84
2022/07/04 12:35:54;;;;;;;;;;;;;;;;;;4853692;29;19934;-84
2022/07/04 12:38:26;;;;;;;;;;;;;;;;;;4849612;29;20343;-83
2022/07/04 12:40:58;;;;;;;;;;;;;;;;;;4857435;29;19937;-84
2022/07/04 12:43:24;;;;;;;;;;;;;;;;;;4858854;29;20370;-84
2022/07/04 12:45:50;;;;;;;;;;;;;;;;;;4854077;29;19948;-84
2022/07/04 12:48:17;;;;;;;;;;;;;;;;;;4866095;29;19936;-84
2022/07/04 12:50:46;;;;;;;;;;;;;;;;;;4856520;29;19982;-85
2022/07/04 12:53:15;;;;;;;;;;;;;;;;;;4853095;29;20026;-84
2022/07/04 12:55:41;;;;;;;;;;;;;;;;;;4842223;29;20286;-85
2022/07/04 12:58:10;;;;;;;;;;;;;;;;;;4825593;29;19929;-85
2022/07/04 13:00:36;;;;;;;;;;;;;;;;;;4827035;29;19940;-84
2022/07/04 13:03:02;;;;;;;;;;;;;;;;;;4804244;29;19928;-84
2022/07/04 13:05:28;;;;;;;;;;;;;;;;;;4822905;29;19967;-85
2022/07/04 13:07:54;;;;;;;;;;;;;;;;;;4805451;29;20395;-85
2022/07/04 13:10:20;;;;;;;;;;;;;;;;;;4791844;29;20406;-82
2022/07/04 13:12:46;;;;;;;;;;;;;;;;;;4803503;29;20099;-82
2022/07/04 13:15:12;;;;;;;;;;;;;;;;;;4806572;29;20462;-82
2022/07/04 13:17:38;;;;;;;;;;;;;;;;;;4804250;29;20024;-81
2022/07/04 13:20:04;;;;;;;;;;;;;;;;;;4813558;29;20077;-82
2022/07/04 13:22:30;;;;;;;;;;;;;;;;;;4823160;29;19932;-81
2022/07/04 13:24:55;;;;;;;;;;;;;;;;;;4817023;29;19939;-82
2022/07/04 13:27:23;;;;;;;;;;;;;;;;;;4824231;29;19933;-81
2022/07/04 13:29:50;;;;;;;;;;;;;;;;;;4847000;29;19931;-82
2022/07/04 13:32:16;;;;;;;;;;;;;;;;;;4860110;29;20382;-82
2022/07/04 13:34:42;;;;;;;;;;;;;;;;;;4861973;29;20351;-83
2022/07/04 13:37:08;;;;;;;;;;;;;;;;;;4854250;29;19928;-84
2022/07/04 13:39:35;;;;;;;;;;;;;;;;;;4876398;29;20019;-83
2022/07/04 13:42:01;;;;;;;;;;;;;;;;;;4871793;29;19939;-83
2022/07/04 13:44:28;;;;;;;;;;;;;;;;;;4857737;29;19931;-82
2022/07/04 13:46:56;;;;;;;;;;;;;;;;;;4872023;29;19927;-83
2022/07/04 13:49:22;;;;;;;;;;;;;;;;;;4860512;29;20298;-82
2022/07/04 13:51:48;;;;;;;;;;;;;;;;;;4871544;29;19928;-82
2022/07/04 13:54:19;;;;;;;;;;;;;;;;;;4873823;29;20391;-81
2022/07/04 13:56:46;;;;;;;;;;;;;;;;;;4851303;29;20006;-81
2022/07/04 13:59:12;;;;;;;;;;;;;;;;;;4874867;29;20481;-81
2022/07/04 14:01:39;;;;;;;;;;;;;;;;;;4864159;29;20378;-82
2022/07/04 14:04:05;;;;;;;;;;;;;;;;;;4869051;29;20418;-82
2022/07/04 14:06:32;;;;;;;;;;;;;;;;;;4879832;29;19979;-82
2022/07/04 14:08:58;;;;;;;;;;;;;;;;;;4877727;29;19927;-83
2022/07/04 14:11:24;;;;;;;;;;;;;;;;;;4879912;29;19931;-84
2022/07/04 14:13:50;;;;;;;;;;;;;;;;;;4869039;29;20030;-84
2022/07/04 14:16:16;;;;;;;;;;;;;;;;;;4873818;29;20626;-84
2022/07/04 14:18:42;;;;;;;;;;;;;;;;;;4868889;29;20057;-84
2022/07/04 14:21:08;;;;;;;;;;;;;;;;;;4874847;29;19928;-84
2022/07/04 14:23:41;;;;;;;;;;;;;;;;;;4860407;29;19923;-86
2022/07/04 14:26:06;;;;;;;;;;;;;;;;;;4859535;29;19974;-87
2022/07/04 14:28:32;;;;;;;;;;;;;;;;;;4865293;29;19962;-86
2022/07/04 14:30:58;;;;;;;;;;;;;;;;;;4860950;29;19927;-87
2022/07/04 14:33:24;;;;;;;;;;;;;;;;;;4864105;29;19943;-86
2022/07/04 14:35:50;;;;;;;;;;;;;;;;;;4879506;29;19931;-87
2022/07/04 14:38:16;;;;;;;;;;;;;;;;;;4861177;29;19927;-87
2022/07/04 14:40:46;;;;;;;;;;;;;;;;;;4840021;29;19935;-86
2022/07/04 14:43:11;;;;;;;;;;;;;;;;;;4862785;29;20378;-85
2022/07/04 14:45:37;;;;;;;;;;;;;;;;;;4864713;29;19938;-85
2022/07/04 14:48:03;;;;;;;;;;;;;;;;;;4877450;29;19997;-85
2022/07/04 14:50:29;;;;;;;;;;;;;;;;;;4865336;29;19931;-86
2022/07/04 14:52:55;;;;;;;;;;;;;;;;;;4858450;29;19924;-88
2022/07/04 14:55:21;;;;;;;;;;;;;;;;;;4847954;29;19935;-87
2022/07/04 14:57:47;;;;;;;;;;;;;;;;;;4841850;29;19967;-85
2022/07/04 15:00:13;;;;;;;;;;;;;;;;;;4867397;29;19924;-85
2022/07/04 15:02:39;;;;;;;;;;;;;;;;;;4862218;29;20381;-85
2022/07/04 15:05:06;;;;;;;;;;;;;;;;;;4860741;29;20022;-84
2022/07/04 15:07:32;;;;;;;;;;;;;;;;;;4859609;29;19924;-85
2022/07/04 15:09:59;;;;;;;;;;;;;;;;;;4857081;29;23424;-85
2022/07/04 15:12:25;;;;;;;;;;;;;;;;;;4863788;29;20243;-86
2022/07/04 15:14:51;;;;;;;;;;;;;;;;;;4858792;29;19927;-86
2022/07/04 15:17:17;;;;;;;;;;;;;;;;;;4850395;29;19970;-86
2022/07/04 15:25:14;;;;;;;;;;;;;;;;;;4859054;29;20294;-85
2022/07/04 15:27:42;;;;;;;;;;;;;;;;;;4871676;29;19960;-87
2022/07/04 15:30:08;;;;;;;;;;;;;;;;;;4857846;29;19931;-87
2022/07/04 15:32:34;;;;;;;;;;;;;;;;;;4860706;29;19927;-86
2022/07/04 15:35:06;;;;;;;;;;;;;;;;;;4857465;29;20508;-87
2022/07/04 15:37:32;;;;;;;;;;;;;;;;;;4857708;29;19932;-87
2022/07/04 15:39:58;;;;;;;;;;;;;;;;;;4855707;29;20448;-86
2022/07/04 15:42:24;;;;;;;;;;;;;;;;;;4857648;29;20396;-86
2022/07/04 15:44:50;;;;;;;;;;;;;;;;;;4847157;29;19946;-86
2022/07/04 15:47:22;;;;;;;;;;;;;;;;;;4856296;29;20424;-85
2022/07/04 15:49:48;;;;;;;;;;;;;;;;;;4850882;29;20026;-87
2022/07/04 15:52:15;;;;;;;;;;;;;;;;;;4857733;29;20287;-86
2022/07/04 15:54:42;;;;;;;;;;;;;;;;;;4867576;29;20343;-86
2022/07/04 15:57:08;;;;;;;;;;;;;;;;;;4838555;29;20051;-88
2022/07/04 15:59:35;;;;;;;;;;;;;;;;;;4857037;29;19927;-87
2022/07/04 16:02:01;;;;;;;;;;;;;;;;;;4851595;29;19954;-86
2022/07/04 16:04:27;;;;;;;;;;;;;;;;;;4870458;29;19932;-85
2022/07/04 16:06:54;;;;;;;;;;;;;;;;;;4863961;29;19931;-87
2022/07/04 16:09:23;;;;;;;;;;;;;;;;;;4871356;29;19950;-87
2022/07/04 16:11:53;;;;;;;;;;;;;;;;;;4866410;29;19931;-86
2022/07/04 16:14:19;;;;;;;;;;;;;;;;;;4859016;29;20363;-87
2022/07/04 16:16:51;;;;;;;;;;;;;;;;;;4851057;29;19927;-86
2022/07/04 16:19:17;;;;;;;;;;;;;;;;;;4837426;29;20263;-87
2022/07/04 16:21:42;;;;;;;;;;;;;;;;;;4862864;29;19932;-86
2022/07/04 16:24:17;;;;;;;;;;;;;;;;;;4873839;29;20293;-86
2022/07/04 16:26:45;;;;;;;;;;;;;;;;;;4853226;29;20276;-85
2022/07/04 16:29:11;;;;;;;;;;;;;;;;;;4861658;29;19934;-86
2022/07/04 16:31:37;;;;;;;;;;;;;;;;;;4859902;29;19986;-87
2022/07/04 16:34:03;;;;;;;;;;;;;;;;;;4845738;29;20386;-89
2022/07/04 16:36:29;;;;;;;;;;;;;;;;;;4875350;29;19935;-87
2022/07/04 16:38:55;;;;;;;;;;;;;;;;;;4848075;29;19937;-86
2022/07/04 16:41:21;;;;;;;;;;;;;;;;;;4854238;29;19954;-85
2022/07/04 16:43:47;;;;;;;;;;;;;;;;;;4838015;29;19978;-85
2022/07/04 16:46:13;;;;;;;;;;;;;;;;;;4861476;29;19923;-87
2022/07/04 16:48:39;;;;;;;;;;;;;;;;;;4853979;29;19932;-88
2022/07/04 16:51:05;;;;;;;;;;;;;;;;;;4855208;29;19938;-86
2022/07/04 16:53:31;;;;;;;;;;;;;;;;;;4871862;29;19936;-86
2022/07/04 16:55:57;;;;;;;;;;;;;;;;;;4855010;29;20291;-86
2022/07/04 16:58:23;;;;;;;;;;;;;;;;;;4875540;29;19930;-87
2022/07/04 17:00:50;;;;;;;;;;;;;;;;;;4848660;29;19932;-86
2022/07/04 17:03:16;;;;;;;;;;;;;;;;;;4844448;29;19991;-86
2022/07/04 17:05:42;;;;;;;;;;;;;;;;;;4852409;29;19939;-88
2022/07/04 17:08:08;;;;;;;;;;;;;;;;;;4855583;29;19991;-88
2022/07/04 17:10:34;;;;;;;;;;;;;;;;;;4846328;29;20331;-88
2022/07/04 17:13:00;;;;;;;;;;;;;;;;;;4846451;29;22799;-87